Saint Augustine, Illinois
Current Conditions -  °F | °C
As of 6:55 PM on Friday 24 Oct 2014 (Local Time) from KGBG Reporting Station
Overcast Overcast  
Wind Chill: 63°   Ceiling: 3100
Heat Index: 63°   Visibility: 10mi
Dew Point: 54°   Wind: 5mph
Humidity: 71%   Direction: 150°SSE
Pressure: 29.94"   Gusts: NA
Location:  40.72°N, 90.41°W
Report Text: KGBG 242355Z AUTO 15004KT 10SM OVC031 17/12 A2994 RMK AO2 T01730120 10196 20139
Loading
Personal Weather Stations






























Interactive Weather Map
Tropical Storm Tracking
New forecast layout! Learn more

10-Day Weather Forecast

Advertisements
Track Severe Weather on mobile